sensor_id;sensor_type;location;lat;lon;timestamp;pressure;altitude;pressure_sealevel;temperature;humidity
59329;BME280;45100;46.926;7.452;2023-08-21T00:02:11;95788.88;;;25.60;60.40
59329;BME280;45100;46.926;7.452;2023-08-21T00:04:42;95790.58;;;25.59;60.34
59329;BME280;45100;46.926;7.452;2023-08-21T00:07:12;95790.48;;;25.57;60.42
59329;BME280;45100;46.926;7.452;2023-08-21T00:09:43;95792.27;;;25.54;60.56
59329;BME280;45100;46.926;7.452;2023-08-21T00:12:14;95789.15;;;25.49;60.61
59329;BME280;45100;46.926;7.452;2023-08-21T00:14:45;95785.22;;;25.42;60.73
59329;BME280;45100;46.926;7.452;2023-08-21T00:17:15;95791.03;;;25.36;60.88
59329;BME280;45100;46.926;7.452;2023-08-21T00:19:46;95787.66;;;25.32;60.85
59329;BME280;45100;46.926;7.452;2023-08-21T00:22:16;95785.97;;;25.29;60.86
59329;BME280;45100;46.926;7.452;2023-08-21T00:24:47;95787.38;;;25.25;60.86
59329;BME280;45100;46.926;7.452;2023-08-21T00:27:18;95790.11;;;25.19;60.93
59329;BME280;45100;46.926;7.452;2023-08-21T00:29:49;95787.68;;;25.12;60.95
59329;BME280;45100;46.926;7.452;2023-08-21T00:32:19;95785.27;;;25.06;61.08
59329;BME280;45100;46.926;7.452;2023-08-21T00:34:50;95788.14;;;25.02;61.21
59329;BME280;45100;46.926;7.452;2023-08-21T00:37:21;95783.20;;;24.97;61.46
59329;BME280;45100;46.926;7.452;2023-08-21T00:39:52;95786.25;;;24.94;61.68
59329;BME280;45100;46.926;7.452;2023-08-21T00:42:23;95784.67;;;24.90;61.45
59329;BME280;45100;46.926;7.452;2023-08-21T00:44:53;95782.47;;;24.85;61.70
59329;BME280;45100;46.926;7.452;2023-08-21T00:47:24;95781.48;;;24.78;62.09
59329;BME280;45100;46.926;7.452;2023-08-21T00:49:55;95779.55;;;24.69;62.41
59329;BME280;45100;46.926;7.452;2023-08-21T00:52:25;95780.77;;;24.60;62.97
59329;BME280;45100;46.926;7.452;2023-08-21T00:54:56;95779.33;;;24.53;63.17
59329;BME280;45100;46.926;7.452;2023-08-21T00:57:26;95783.42;;;24.47;63.50
59329;BME280;45100;46.926;7.452;2023-08-21T00:59:59;95777.16;;;24.42;63.71
59329;BME280;45100;46.926;7.452;2023-08-21T01:02:28;95783.19;;;24.39;63.71
59329;BME280;45100;46.926;7.452;2023-08-21T01:04:59;95778.22;;;24.38;63.82
59329;BME280;45100;46.926;7.452;2023-08-21T01:07:30;95781.20;;;24.36;63.85
59329;BME280;45100;46.926;7.452;2023-08-21T01:10:08;95786.38;;;24.34;63.87
59329;BME280;45100;46.926;7.452;2023-08-21T01:12:39;95782.92;;;24.33;63.73
59329;BME280;45100;46.926;7.452;2023-08-21T01:15:03;95786.70;;;24.32;63.35
59329;BME280;45100;46.926;7.452;2023-08-21T01:17:33;95787.47;;;24.32;63.34
59329;BME280;45100;46.926;7.452;2023-08-21T01:20:02;95791.16;;;24.32;63.27
59329;BME280;45100;46.926;7.452;2023-08-21T01:22:38;95790.67;;;24.30;63.67
59329;BME280;45100;46.926;7.452;2023-08-21T01:25:02;95792.11;;;24.27;63.65
59329;BME280;45100;46.926;7.452;2023-08-21T01:27:33;95797.45;;;24.21;64.12
59329;BME280;45100;46.926;7.452;2023-08-21T01:35:09;95795.19;;;24.15;63.63
59329;BME280;45100;46.926;7.452;2023-08-21T01:37:38;95798.36;;;24.14;63.69
59329;BME280;45100;46.926;7.452;2023-08-21T01:40:09;95795.17;;;24.13;63.58
59329;BME280;45100;46.926;7.452;2023-08-21T01:42:38;95796.50;;;24.10;63.90
59329;BME280;45100;46.926;7.452;2023-08-21T01:45:09;95799.06;;;24.08;64.13
59329;BME280;45100;46.926;7.452;2023-08-21T01:47:40;95798.20;;;24.06;63.84
59329;BME280;45100;46.926;7.452;2023-08-21T01:50:10;95798.59;;;24.03;63.93
59329;BME280;45100;46.926;7.452;2023-08-21T01:52:41;95795.88;;;23.99;63.94
59329;BME280;45100;46.926;7.452;2023-08-21T01:55:12;95800.56;;;23.97;64.00
59329;BME280;45100;46.926;7.452;2023-08-21T01:57:43;95805.23;;;23.98;64.15
59329;BME280;45100;46.926;7.452;2023-08-21T02:00:14;95804.41;;;23.97;63.90
59329;BME280;45100;46.926;7.452;2023-08-21T02:02:42;95801.31;;;23.92;64.01
59329;BME280;45100;46.926;7.452;2023-08-21T02:05:13;95802.45;;;23.87;64.02
59329;BME280;45100;46.926;7.452;2023-08-21T02:07:44;95805.75;;;23.80;64.30
59329;BME280;45100;46.926;7.452;2023-08-21T02:10:14;95802.88;;;23.75;64.45
59329;BME280;45100;46.926;7.452;2023-08-21T02:12:45;95799.86;;;23.73;64.48
59329;BME280;45100;46.926;7.452;2023-08-21T02:15:16;95799.78;;;23.72;64.54
59329;BME280;45100;46.926;7.452;2023-08-21T02:17:46;95801.44;;;23.71;64.53
59329;BME280;45100;46.926;7.452;2023-08-21T02:20:17;95799.25;;;23.70;64.53
59329;BME280;45100;46.926;7.452;2023-08-21T02:22:47;95799.03;;;23.70;64.39
59329;BME280;45100;46.926;7.452;2023-08-21T02:25:18;95797.73;;;23.66;64.27
59329;BME280;45100;46.926;7.452;2023-08-21T02:27:49;95794.48;;;23.64;64.18
59329;BME280;45100;46.926;7.452;2023-08-21T02:30:21;95800.67;;;23.62;64.11
59329;BME280;45100;46.926;7.452;2023-08-21T02:32:54;95802.11;;;23.61;64.12
59329;BME280;45100;46.926;7.452;2023-08-21T02:37:53;95799.34;;;23.59;64.15
59329;BME280;45100;46.926;7.452;2023-08-21T02:40:24;95799.89;;;23.56;64.15
59329;BME280;45100;46.926;7.452;2023-08-21T02:42:55;95798.91;;;23.51;64.60
59329;BME280;45100;46.926;7.452;2023-08-21T02:45:26;95804.55;;;23.48;64.77
59329;BME280;45100;46.926;7.452;2023-08-21T02:47:56;95804.32;;;23.46;64.58
59329;BME280;45100;46.926;7.452;2023-08-21T02:50:27;95799.88;;;23.45;64.72
59329;BME280;45100;46.926;7.452;2023-08-21T02:52:58;95802.23;;;23.42;64.93
59329;BME280;45100;46.926;7.452;2023-08-21T02:55:28;95800.73;;;23.39;64.95
59329;BME280;45100;46.926;7.452;2023-08-21T02:57:59;95801.41;;;23.36;65.02
59329;BME280;45100;46.926;7.452;2023-08-21T03:00:30;95796.90;;;23.31;65.10
59329;BME280;45100;46.926;7.452;2023-08-21T03:03:00;95796.01;;;23.28;64.94
59329;BME280;45100;46.926;7.452;2023-08-21T03:05:31;95797.52;;;23.23;65.10
59329;BME280;45100;46.926;7.452;2023-08-21T03:08:02;95798.98;;;23.16;65.43
59329;BME280;45100;46.926;7.452;2023-08-21T03:13:07;95801.91;;;23.07;65.70
59329;BME280;45100;46.926;7.452;2023-08-21T03:15:37;95798.71;;;23.03;66.03
59329;BME280;45100;46.926;7.452;2023-08-21T03:18:08;95797.97;;;22.97;66.46
59329;BME280;45100;46.926;7.452;2023-08-21T03:20:43;95805.64;;;22.93;66.49
59329;BME280;45100;46.926;7.452;2023-08-21T03:23:09;95803.76;;;22.90;66.60
59329;BME280;45100;46.926;7.452;2023-08-21T03:25:40;95808.64;;;22.90;66.37
59329;BME280;45100;46.926;7.452;2023-08-21T03:28:11;95808.81;;;22.88;66.24
59329;BME280;45100;46.926;7.452;2023-08-21T03:33:14;95806.10;;;22.86;66.48
59329;BME280;45100;46.926;7.452;2023-08-21T03:35:45;95804.52;;;22.86;66.48
59329;BME280;45100;46.926;7.452;2023-08-21T03:38:16;95806.98;;;22.87;66.09
59329;BME280;45100;46.926;7.452;2023-08-21T03:40:47;95805.22;;;22.87;66.10
59329;BME280;45100;46.926;7.452;2023-08-21T03:43:18;95812.11;;;22.89;66.18
59329;BME280;45100;46.926;7.452;2023-08-21T03:45:48;95808.12;;;22.92;66.06
59329;BME280;45100;46.926;7.452;2023-08-21T03:48:19;95808.28;;;22.93;66.36
59329;BME280;45100;46.926;7.452;2023-08-21T03:50:49;95809.88;;;22.92;66.73
59329;BME280;45100;46.926;7.452;2023-08-21T03:53:19;95810.38;;;22.92;66.63
59329;BME280;45100;46.926;7.452;2023-08-21T03:55:50;95813.00;;;22.92;66.51
59329;BME280;45100;46.926;7.452;2023-08-21T03:58:21;95812.95;;;22.92;66.21
59329;BME280;45100;46.926;7.452;2023-08-21T04:00:51;95816.62;;;22.92;66.12
59329;BME280;45100;46.926;7.452;2023-08-21T04:03:22;95818.00;;;22.92;65.92
59329;BME280;45100;46.926;7.452;2023-08-21T04:08:26;95823.03;;;22.85;65.97
59329;BME280;45100;46.926;7.452;2023-08-21T04:11:01;95823.86;;;22.81;65.75
59329;BME280;45100;46.926;7.452;2023-08-21T04:13:27;95827.62;;;22.78;65.97
59329;BME280;45100;46.926;7.452;2023-08-21T04:15:58;95831.05;;;22.75;65.89
59329;BME280;45100;46.926;7.452;2023-08-21T04:18:28;95835.14;;;22.73;66.00
59329;BME280;45100;46.926;7.452;2023-08-21T04:21:00;95836.10;;;22.71;66.26
59329;BME280;45100;46.926;7.452;2023-08-21T04:23:30;95836.48;;;22.70;66.08
59329;BME280;45100;46.926;7.452;2023-08-21T04:26:00;95836.81;;;22.71;66.07
59329;BME280;45100;46.926;7.452;2023-08-21T04:28:33;95839.12;;;22.70;66.19
59329;BME280;45100;46.926;7.452;2023-08-21T04:31:00;95839.50;;;22.71;65.89
59329;BME280;45100;46.926;7.452;2023-08-21T04:33:31;95840.39;;;22.71;65.81
59329;BME280;45100;46.926;7.452;2023-08-21T04:36:01;95838.47;;;22.70;65.75
59329;BME280;45100;46.926;7.452;2023-08-21T04:38:32;95838.41;;;22.69;66.04
59329;BME280;45100;46.926;7.452;2023-08-21T04:41:06;95845.83;;;22.69;66.28
59329;BME280;45100;46.926;7.452;2023-08-21T04:43:32;95840.75;;;22.68;66.43
59329;BME280;45100;46.926;7.452;2023-08-21T04:46:04;95843.83;;;22.67;66.46
59329;BME280;45100;46.926;7.452;2023-08-21T04:48:33;95841.77;;;22.66;66.26
59329;BME280;45100;46.926;7.452;2023-08-21T04:51:04;95843.14;;;22.66;66.51
59329;BME280;45100;46.926;7.452;2023-08-21T04:53:35;95849.76;;;22.67;66.73
59329;BME280;45100;46.926;7.452;2023-08-21T04:56:05;95853.31;;;22.74;66.25
59329;BME280;45100;46.926;7.452;2023-08-21T04:58:36;95854.42;;;22.81;66.03
59329;BME280;45100;46.926;7.452;2023-08-21T05:01:06;95861.89;;;22.93;65.51
59329;BME280;45100;46.926;7.452;2023-08-21T05:03:37;95863.56;;;23.02;65.03
59329;BME280;45100;46.926;7.452;2023-08-21T05:06:08;95869.61;;;23.09;64.89
59329;BME280;45100;46.926;7.452;2023-08-21T05:08:39;95868.91;;;23.14;64.79
59329;BME280;45100;46.926;7.452;2023-08-21T05:11:09;95869.39;;;23.18;64.78
59329;BME280;45100;46.926;7.452;2023-08-21T05:13:40;95874.37;;;23.24;64.44
59329;BME280;45100;46.926;7.452;2023-08-21T05:16:11;95872.73;;;23.28;64.27
59329;BME280;45100;46.926;7.452;2023-08-21T05:18:41;95875.56;;;23.34;64.14
59329;BME280;45100;46.926;7.452;2023-08-21T05:21:12;95877.77;;;23.37;64.05
59329;BME280;45100;46.926;7.452;2023-08-21T05:23:42;95878.56;;;23.40;64.10
59329;BME280;45100;46.926;7.452;2023-08-21T05:26:13;95882.15;;;23.43;64.15
59329;BME280;45100;46.926;7.452;2023-08-21T05:28:44;95883.87;;;23.45;64.19
59329;BME280;45100;46.926;7.452;2023-08-21T05:31:14;95882.84;;;23.48;64.23
59329;BME280;45100;46.926;7.452;2023-08-21T05:33:46;95881.03;;;23.51;64.19
59329;BME280;45100;46.926;7.452;2023-08-21T05:36:15;95882.47;;;23.55;64.03
59329;BME280;45100;46.926;7.452;2023-08-21T05:38:48;95883.83;;;23.60;63.71
59329;BME280;45100;46.926;7.452;2023-08-21T05:41:16;95879.04;;;23.65;63.41
59329;BME280;45100;46.926;7.452;2023-08-21T05:43:49;95882.95;;;23.70;63.16
59329;BME280;45100;46.926;7.452;2023-08-21T05:46:18;95884.23;;;23.76;62.52
59329;BME280;45100;46.926;7.452;2023-08-21T05:48:48;95883.85;;;23.80;62.23
59329;BME280;45100;46.926;7.452;2023-08-21T05:51:19;95882.42;;;23.84;62.01
59329;BME280;45100;46.926;7.452;2023-08-21T05:53:50;95885.57;;;23.87;61.76
59329;BME280;45100;46.926;7.452;2023-08-21T05:56:21;95887.91;;;23.92;61.71
59329;BME280;45100;46.926;7.452;2023-08-21T05:58:51;95891.88;;;23.95;61.59
59329;BME280;45100;46.926;7.452;2023-08-21T06:01:22;95895.22;;;23.93;61.87
59329;BME280;45100;46.926;7.452;2023-08-21T06:03:52;95897.25;;;23.89;62.17
59329;BME280;45100;46.926;7.452;2023-08-21T06:06:23;95896.86;;;23.89;62.54
59329;BME280;45100;46.926;7.452;2023-08-21T06:08:54;95896.63;;;23.90;62.64
59329;BME280;45100;46.926;7.452;2023-08-21T06:11:24;95895.12;;;23.91;62.37
59329;BME280;45100;46.926;7.452;2023-08-21T06:13:55;95897.06;;;23.93;62.25
59329;BME280;45100;46.926;7.452;2023-08-21T06:16:26;95903.20;;;23.96;61.89
59329;BME280;45100;46.926;7.452;2023-08-21T06:18:56;95903.61;;;23.98;61.90
59329;BME280;45100;46.926;7.452;2023-08-21T06:24:00;95900.91;;;24.05;61.73
59329;BME280;45100;46.926;7.452;2023-08-21T06:26:30;95899.38;;;24.08;61.75
59329;BME280;45100;46.926;7.452;2023-08-21T06:29:01;95900.22;;;24.11;61.60
59329;BME280;45100;46.926;7.452;2023-08-21T06:31:32;95900.39;;;24.17;61.01
59329;BME280;45100;46.926;7.452;2023-08-21T06:34:03;95907.06;;;24.23;60.82
59329;BME280;45100;46.926;7.452;2023-08-21T06:36:33;95909.29;;;24.24;60.77
59329;BME280;45100;46.926;7.452;2023-08-21T06:39:04;95909.60;;;24.26;60.86
59329;BME280;45100;46.926;7.452;2023-08-21T06:41:34;95912.41;;;24.29;60.73
59329;BME280;45100;46.926;7.452;2023-08-21T06:44:05;95909.41;;;24.33;60.63
59329;BME280;45100;46.926;7.452;2023-08-21T06:49:10;95909.67;;;24.38;60.58
59329;BME280;45100;46.926;7.452;2023-08-21T06:51:40;95911.83;;;24.40;60.98
59329;BME280;45100;46.926;7.452;2023-08-21T06:54:11;95913.80;;;24.43;60.87
59329;BME280;45100;46.926;7.452;2023-08-21T06:56:42;95912.27;;;24.48;60.84
59329;BME280;45100;46.926;7.452;2023-08-21T06:59:13;95913.52;;;24.53;60.59
59329;BME280;45100;46.926;7.452;2023-08-21T07:01:44;95909.45;;;24.59;60.82
59329;BME280;45100;46.926;7.452;2023-08-21T07:04:14;95905.95;;;24.63;60.69
59329;BME280;45100;46.926;7.452;2023-08-21T07:06:45;95911.38;;;24.65;60.67
59329;BME280;45100;46.926;7.452;2023-08-21T07:09:16;95913.42;;;24.64;60.80
59329;BME280;45100;46.926;7.452;2023-08-21T07:11:47;95915.23;;;24.68;61.15
59329;BME280;45100;46.926;7.452;2023-08-21T07:14:19;95913.38;;;24.73;61.64
59329;BME280;45100;46.926;7.452;2023-08-21T07:16:48;95910.93;;;24.78;61.68
59329;BME280;45100;46.926;7.452;2023-08-21T07:19:19;95910.67;;;24.85;61.57
59329;BME280;45100;46.926;7.452;2023-08-21T07:21:49;95915.08;;;24.93;61.62
59329;BME280;45100;46.926;7.452;2023-08-21T07:26:53;95910.64;;;25.07;60.85
59329;BME280;45100;46.926;7.452;2023-08-21T07:29:23;95908.05;;;25.12;60.55
59329;BME280;45100;46.926;7.452;2023-08-21T07:31:54;95905.14;;;25.19;60.39
59329;BME280;45100;46.926;7.452;2023-08-21T07:34:24;95905.91;;;25.27;59.83
59329;BME280;45100;46.926;7.452;2023-08-21T07:36:55;95910.58;;;25.33;59.38
59329;BME280;45100;46.926;7.452;2023-08-21T07:39:26;95909.73;;;25.39;59.40
59329;BME280;45100;46.926;7.452;2023-08-21T07:41:57;95910.48;;;25.46;59.00
59329;BME280;45100;46.926;7.452;2023-08-21T07:44:27;95915.02;;;25.56;58.55
59329;BME280;45100;46.926;7.452;2023-08-21T07:46:58;95914.03;;;25.68;58.28
59329;BME280;45100;46.926;7.452;2023-08-21T07:49:29;95913.42;;;25.75;57.81
59329;BME280;45100;46.926;7.452;2023-08-21T07:51:59;95915.67;;;25.82;57.68
59329;BME280;45100;46.926;7.452;2023-08-21T07:54:30;95915.91;;;25.91;57.69
59329;BME280;45100;46.926;7.452;2023-08-21T07:57:01;95914.67;;;25.99;57.38
59329;BME280;45100;46.926;7.452;2023-08-21T07:59:32;95912.02;;;26.09;57.08
59329;BME280;45100;46.926;7.452;2023-08-21T08:02:05;95914.15;;;26.20;56.78
59329;BME280;45100;46.926;7.452;2023-08-21T08:04:34;95913.19;;;26.32;56.36
59329;BME280;45100;46.926;7.452;2023-08-21T08:07:04;95910.55;;;26.42;55.24
59329;BME280;45100;46.926;7.452;2023-08-21T08:09:36;95910.66;;;26.52;54.94
59329;BME280;45100;46.926;7.452;2023-08-21T08:12:06;95910.89;;;26.60;54.93
59329;BME280;45100;46.926;7.452;2023-08-21T08:14:37;95907.94;;;26.68;54.63
59329;BME280;45100;46.926;7.452;2023-08-21T08:17:07;95908.91;;;26.78;54.20
59329;BME280;45100;46.926;7.452;2023-08-21T08:19:38;95907.78;;;26.87;54.04
59329;BME280;45100;46.926;7.452;2023-08-21T08:22:09;95907.52;;;26.92;54.21
59329;BME280;45100;46.926;7.452;2023-08-21T08:24:39;95910.05;;;27.00;54.11
59329;BME280;45100;46.926;7.452;2023-08-21T08:27:11;95906.24;;;27.12;53.62
59329;BME280;45100;46.926;7.452;2023-08-21T08:29:40;95905.72;;;27.26;52.65
59329;BME280;45100;46.926;7.452;2023-08-21T08:32:11;95907.88;;;27.39;52.76
59329;BME280;45100;46.926;7.452;2023-08-21T08:34:42;95901.81;;;27.56;52.37
59329;BME280;45100;46.926;7.452;2023-08-21T08:37:13;95901.91;;;27.72;51.64
59329;BME280;45100;46.926;7.452;2023-08-21T08:39:45;95899.84;;;27.89;51.17
59329;BME280;45100;46.926;7.452;2023-08-21T08:42:14;95897.80;;;28.01;50.02
59329;BME280;45100;46.926;7.452;2023-08-21T08:44:46;95895.11;;;28.15;49.68
59329;BME280;45100;46.926;7.452;2023-08-21T08:47:17;95892.63;;;28.30;49.01
59329;BME280;45100;46.926;7.452;2023-08-21T08:49:47;95892.28;;;28.44;48.87
59329;BME280;45100;46.926;7.452;2023-08-21T08:52:18;95887.33;;;28.52;47.69
59329;BME280;45100;46.926;7.452;2023-08-21T08:57:20;95887.12;;;28.73;47.10
59329;BME280;45100;46.926;7.452;2023-08-21T08:59:50;95890.61;;;28.86;46.11
59329;BME280;45100;46.926;7.452;2023-08-21T09:02:20;95886.66;;;28.94;46.04
59329;BME280;45100;46.926;7.452;2023-08-21T09:04:51;95881.23;;;29.00;45.62
59329;BME280;45100;46.926;7.452;2023-08-21T09:07:22;95881.77;;;29.09;45.73
59329;BME280;45100;46.926;7.452;2023-08-21T09:09:53;95876.16;;;29.21;45.26
59329;BME280;45100;46.926;7.452;2023-08-21T09:12:23;95876.42;;;29.31;45.41
59329;BME280;45100;46.926;7.452;2023-08-21T09:14:54;95872.95;;;29.38;45.55
59329;BME280;45100;46.926;7.452;2023-08-21T09:20:05;95873.65;;;29.53;44.71
59329;BME280;45100;46.926;7.452;2023-08-21T09:22:27;95871.23;;;29.68;44.12
59329;BME280;45100;46.926;7.452;2023-08-21T09:25:05;95868.87;;;29.84;43.23
59329;BME280;45100;46.926;7.452;2023-08-21T09:27:29;95867.40;;;29.89;41.71
59329;BME280;45100;46.926;7.452;2023-08-21T09:35:05;95866.98;;;29.99;42.19
59329;BME280;45100;46.926;7.452;2023-08-21T09:37:35;95863.64;;;30.04;42.63
59329;BME280;45100;46.926;7.452;2023-08-21T09:40:09;95856.95;;;30.10;42.60
59329;BME280;45100;46.926;7.452;2023-08-21T09:42:39;95858.65;;;30.16;42.57
59329;BME280;45100;46.926;7.452;2023-08-21T09:45:08;95854.50;;;30.27;42.50
59329;BME280;45100;46.926;7.452;2023-08-21T09:47:40;95854.54;;;30.42;42.36
59329;BME280;45100;46.926;7.452;2023-08-21T09:50:09;95850.60;;;30.53;41.93
59329;BME280;45100;46.926;7.452;2023-08-21T09:52:39;95847.45;;;30.56;41.80
59329;BME280;45100;46.926;7.452;2023-08-21T09:55:09;95846.55;;;30.55;41.75
59329;BME280;45100;46.926;7.452;2023-08-21T09:57:42;95846.95;;;30.54;41.96
59329;BME280;45100;46.926;7.452;2023-08-21T10:00:22;95847.47;;;30.58;41.23
59329;BME280;45100;46.926;7.452;2023-08-21T10:02:46;95844.05;;;30.57;41.38
59329;BME280;45100;46.926;7.452;2023-08-21T10:05:13;95845.97;;;30.58;41.34
59329;BME280;45100;46.926;7.452;2023-08-21T10:07:45;95844.20;;;30.62;41.08
59329;BME280;45100;46.926;7.452;2023-08-21T10:10:13;95840.12;;;30.70;40.66
59329;BME280;45100;46.926;7.452;2023-08-21T10:12:44;95839.70;;;30.79;40.58
59329;BME280;45100;46.926;7.452;2023-08-21T10:15:15;95836.38;;;30.85;40.33
59329;BME280;45100;46.926;7.452;2023-08-21T10:17:45;95833.59;;;31.00;40.17
59329;BME280;45100;46.926;7.452;2023-08-21T10:20:20;95831.10;;;31.23;39.75
59329;BME280;45100;46.926;7.452;2023-08-21T10:22:48;95828.28;;;31.41;39.37
59329;BME280;45100;46.926;7.452;2023-08-21T10:25:24;95823.76;;;31.53;39.43
59329;BME280;45100;46.926;7.452;2023-08-21T10:27:52;95823.50;;;31.56;39.55
59329;BME280;45100;46.926;7.452;2023-08-21T10:30:21;95824.00;;;31.56;39.27
59329;BME280;45100;46.926;7.452;2023-08-21T10:32:49;95818.33;;;31.56;39.91
59329;BME280;45100;46.926;7.452;2023-08-21T10:35:21;95819.88;;;31.57;40.13
59329;BME280;45100;46.926;7.452;2023-08-21T10:38:12;95819.42;;;31.64;39.64
59329;BME280;45100;46.926;7.452;2023-08-21T10:40:22;95821.00;;;31.75;39.30
59329;BME280;45100;46.926;7.452;2023-08-21T10:42:50;95818.63;;;31.84;39.24
59329;BME280;45100;46.926;7.452;2023-08-21T10:45:21;95815.00;;;31.93;38.71
59329;BME280;45100;46.926;7.452;2023-08-21T10:47:51;95813.37;;;31.97;39.07
59329;BME280;45100;46.926;7.452;2023-08-21T10:50:23;95811.73;;;32.04;38.99
59329;BME280;45100;46.926;7.452;2023-08-21T10:52:53;95808.77;;;32.13;38.82
59329;BME280;45100;46.926;7.452;2023-08-21T10:55:23;95804.45;;;32.21;39.43
59329;BME280;45100;46.926;7.452;2023-08-21T10:57:53;95807.78;;;32.24;39.26
59329;BME280;45100;46.926;7.452;2023-08-21T11:00:25;95804.55;;;32.24;39.12
59329;BME280;45100;46.926;7.452;2023-08-21T11:02:54;95803.33;;;32.31;38.14
59329;BME280;45100;46.926;7.452;2023-08-21T11:05:25;95805.91;;;32.41;37.66
59329;BME280;45100;46.926;7.452;2023-08-21T11:07:55;95801.49;;;32.48;37.93
59329;BME280;45100;46.926;7.452;2023-08-21T11:10:29;95803.83;;;32.54;37.97
59329;BME280;45100;46.926;7.452;2023-08-21T11:12:58;95803.61;;;32.52;38.04
59329;BME280;45100;46.926;7.452;2023-08-21T11:18:02;95794.58;;;32.58;37.97
59329;BME280;45100;46.926;7.452;2023-08-21T11:20:31;95794.05;;;32.71;37.75
59329;BME280;45100;46.926;7.452;2023-08-21T11:23:04;95791.58;;;32.84;37.53
59329;BME280;45100;46.926;7.452;2023-08-21T11:25:32;95785.53;;;32.93;37.38
59329;BME280;45100;46.926;7.452;2023-08-21T11:28:05;95784.07;;;33.04;35.79
59329;BME280;45100;46.926;7.452;2023-08-21T11:30:32;95784.97;;;33.17;36.01
59329;BME280;45100;46.926;7.452;2023-08-21T11:33:06;95786.07;;;33.20;36.03
59329;BME280;45100;46.926;7.452;2023-08-21T11:35:33;95784.64;;;33.18;34.83
59329;BME280;45100;46.926;7.452;2023-08-21T11:38:04;95781.50;;;33.18;35.01
59329;BME280;45100;46.926;7.452;2023-08-21T11:40:35;95779.25;;;33.20;35.09
59329;BME280;45100;46.926;7.452;2023-08-21T11:43:07;95776.45;;;33.21;35.26
59329;BME280;45100;46.926;7.452;2023-08-21T11:45:35;95776.92;;;33.23;35.24
59329;BME280;45100;46.926;7.452;2023-08-21T11:48:07;95770.44;;;33.26;35.44
59329;BME280;45100;46.926;7.452;2023-08-21T11:50:36;95770.62;;;33.30;34.63
59329;BME280;45100;46.926;7.452;2023-08-21T11:53:07;95769.12;;;33.32;34.40
59329;BME280;45100;46.926;7.452;2023-08-21T11:55:40;95767.21;;;33.33;34.52
59329;BME280;45100;46.926;7.452;2023-08-21T11:58:09;95763.09;;;33.32;34.79
59329;BME280;45100;46.926;7.452;2023-08-21T12:03:17;95756.08;;;33.48;34.50
59329;BME280;45100;46.926;7.452;2023-08-21T12:05:43;95755.33;;;33.52;34.10
59329;BME280;45100;46.926;7.452;2023-08-21T12:10:50;95749.03;;;33.59;33.79
59329;BME280;45100;46.926;7.452;2023-08-21T12:13:16;95745.73;;;33.62;33.75
59329;BME280;45100;46.926;7.452;2023-08-21T12:15:46;95747.66;;;33.66;33.09
59329;BME280;45100;46.926;7.452;2023-08-21T12:18:17;95745.86;;;33.66;32.75
59329;BME280;45100;46.926;7.452;2023-08-21T12:20:48;95745.87;;;33.70;32.90
59329;BME280;45100;46.926;7.452;2023-08-21T12:23:18;95750.85;;;33.71;33.03
59329;BME280;45100;46.926;7.452;2023-08-21T12:25:52;95742.77;;;33.72;32.80
59329;BME280;45100;46.926;7.452;2023-08-21T12:28:22;95740.52;;;33.78;32.33
59329;BME280;45100;46.926;7.452;2023-08-21T12:30:53;95741.08;;;33.88;32.79
59329;BME280;45100;46.926;7.452;2023-08-21T12:33:23;95736.23;;;33.99;32.58
59329;BME280;45100;46.926;7.452;2023-08-21T12:35:54;95734.05;;;34.07;32.76
59329;BME280;45100;46.926;7.452;2023-08-21T12:38:29;95735.17;;;34.11;32.93
59329;BME280;45100;46.926;7.452;2023-08-21T12:40:55;95732.50;;;34.13;32.75
59329;BME280;45100;46.926;7.452;2023-08-21T12:43:26;95728.77;;;34.16;32.18
59329;BME280;45100;46.926;7.452;2023-08-21T12:45:57;95719.28;;;34.17;32.07
59329;BME280;45100;46.926;7.452;2023-08-21T12:48:28;95726.70;;;34.20;31.98
59329;BME280;45100;46.926;7.452;2023-08-21T12:50:58;95718.70;;;34.18;31.65
59329;BME280;45100;46.926;7.452;2023-08-21T12:53:29;95713.77;;;34.16;31.27
59329;BME280;45100;46.926;7.452;2023-08-21T12:58:34;95712.20;;;34.30;30.85
59329;BME280;45100;46.926;7.452;2023-08-21T13:03:38;95704.63;;;34.59;29.98
59329;BME280;45100;46.926;7.452;2023-08-21T13:06:08;95699.59;;;34.67;30.20
59329;BME280;45100;46.926;7.452;2023-08-21T13:08:38;95699.03;;;34.70;29.72
59329;BME280;45100;46.926;7.452;2023-08-21T13:11:10;95698.58;;;34.71;29.62
59329;BME280;45100;46.926;7.452;2023-08-21T13:13:39;95695.62;;;34.71;29.42
59329;BME280;45100;46.926;7.452;2023-08-21T13:16:10;95698.64;;;34.76;28.98
59329;BME280;45100;46.926;7.452;2023-08-21T13:18:41;95695.19;;;34.78;29.30
59329;BME280;45100;46.926;7.452;2023-08-21T13:21:12;95694.55;;;34.81;29.78
59329;BME280;45100;46.926;7.452;2023-08-21T13:23:42;95693.91;;;34.85;28.95
59329;BME280;45100;46.926;7.452;2023-08-21T13:26:13;95692.31;;;34.86;29.08
59329;BME280;45100;46.926;7.452;2023-08-21T13:28:45;95692.70;;;34.94;29.09
59329;BME280;45100;46.926;7.452;2023-08-21T13:31:15;95689.65;;;35.03;29.00
59329;BME280;45100;46.926;7.452;2023-08-21T13:33:49;95687.45;;;35.12;28.95
59329;BME280;45100;46.926;7.452;2023-08-21T13:36:16;95689.30;;;35.12;28.82
59329;BME280;45100;46.926;7.452;2023-08-21T13:38:46;95682.84;;;35.03;28.77
59329;BME280;45100;46.926;7.452;2023-08-21T13:41:17;95673.84;;;34.96;28.44
59329;BME280;45100;46.926;7.452;2023-08-21T13:43:48;95675.75;;;34.94;28.23
59329;BME280;45100;46.926;7.452;2023-08-21T13:46:19;95676.14;;;35.00;28.50
59329;BME280;45100;46.926;7.452;2023-08-21T13:48:49;95678.33;;;35.06;28.52
59329;BME280;45100;46.926;7.452;2023-08-21T13:53:53;95667.30;;;35.07;28.62
59329;BME280;45100;46.926;7.452;2023-08-21T13:56:23;95666.53;;;35.00;29.18
59329;BME280;45100;46.926;7.452;2023-08-21T13:58:53;95659.56;;;34.98;28.63
59329;BME280;45100;46.926;7.452;2023-08-21T14:01:24;95657.50;;;35.02;27.87
59329;BME280;45100;46.926;7.452;2023-08-21T14:03:55;95658.67;;;35.04;28.10
59329;BME280;45100;46.926;7.452;2023-08-21T14:06:26;95661.83;;;35.04;28.83